createdAt,value
2022-12-06T00:01:11.720Z,84.90
2022-12-06T00:03:39.871Z,114.47
2022-12-06T00:06:13.718Z,96.47
2022-12-06T00:08:41.413Z,83.97
2022-12-06T00:11:11.055Z,85.80
2022-12-06T00:13:38.740Z,81.20
2022-12-06T00:16:08.225Z,93.72
2022-12-06T00:18:37.246Z,87.63
2022-12-06T00:21:10.636Z,86.70
2022-12-06T00:23:43.231Z,85.43
2022-12-06T00:26:10.913Z,86.70
2022-12-06T00:28:38.810Z,86.32
2022-12-06T00:31:10.308Z,104.20
2022-12-06T00:33:37.924Z,93.93
2022-12-06T00:36:07.633Z,88.68
2022-12-06T00:38:37.260Z,86.72
2022-12-06T00:41:09.559Z,90.13
2022-12-06T00:43:37.203Z,85.22
2022-12-06T00:46:06.898Z,87.53
2022-12-06T00:48:34.717Z,76.25
2022-12-06T00:51:01.581Z,74.32
2022-12-06T00:53:28.515Z,75.15
2022-12-06T00:55:55.812Z,71.28
2022-12-06T00:58:22.946Z,71.63
2022-12-06T01:00:50.610Z,76.63
2022-12-06T01:03:17.948Z,86.03
2022-12-06T01:05:47.907Z,74.10
2022-12-06T01:08:16.227Z,82.53
2022-12-06T01:10:51.007Z,73.25
2022-12-06T01:13:17.850Z,83.47
2022-12-06T01:15:44.730Z,71.53
2022-12-06T01:18:11.950Z,75.68
2022-12-06T01:20:38.778Z,77.88
2022-12-06T01:23:05.560Z,82.63
2022-12-06T01:25:35.923Z,86.85
2022-12-06T01:28:03.787Z,85.00
2022-12-06T01:30:31.070Z,83.47
2022-12-06T01:32:58.054Z,75.53
2022-12-06T01:35:24.868Z,80.80
2022-12-06T01:37:51.673Z,71.22
2022-12-06T01:40:18.617Z,71.70
2022-12-06T01:42:45.451Z,74.65
2022-12-06T01:45:12.351Z,75.35
2022-12-06T01:47:42.718Z,74.35
2022-12-06T01:50:12.997Z,79.40
2022-12-06T01:52:52.016Z,74.63
2022-12-06T01:55:22.258Z,83.07
2022-12-06T01:57:51.400Z,77.78
2022-12-06T02:00:18.683Z,77.90
2022-12-06T02:02:46.226Z,73.03
2022-12-06T02:05:14.521Z,77.53
2022-12-06T02:07:42.785Z,71.50
2022-12-06T02:10:10.610Z,76.15
2022-12-06T02:12:37.465Z,78.38
2022-12-06T02:15:06.048Z,74.20
2022-12-06T02:17:33.257Z,71.15
2022-12-06T02:20:24.452Z,72.63
2022-12-06T02:23:27.044Z,68.88
2022-12-06T02:26:26.983Z,80.72
2022-12-06T02:28:59.781Z,70.30
2022-12-06T02:31:59.437Z,74.97
2022-12-06T02:34:50.172Z,67.57
2022-12-06T02:37:26.569Z,69.68
2022-12-06T02:39:58.574Z,72.68
2022-12-06T02:42:47.628Z,60.05
2022-12-06T02:45:32.379Z,67.25
2022-12-06T02:48:03.313Z,64.78
2022-12-06T02:50:35.263Z,64.50
2022-12-06T02:53:04.355Z,69.65
2022-12-06T02:55:33.245Z,77.60
2022-12-06T02:58:00.104Z,67.15
2022-12-06T03:00:33.243Z,64.15
2022-12-06T03:03:27.981Z,74.80
2022-12-06T03:06:03.692Z,61.63
2022-12-06T03:08:51.417Z,62.00
2022-12-06T03:11:18.809Z,81.47
2022-12-06T03:13:48.653Z,71.43
2022-12-06T03:16:35.344Z,73.68
2022-12-06T03:19:24.931Z,70.03
2022-12-06T03:22:06.617Z,74.80
2022-12-06T03:24:35.897Z,61.30
2022-12-06T03:27:10.528Z,68.72
2022-12-06T03:29:41.179Z,66.40
2022-12-06T03:32:10.289Z,76.97
2022-12-06T03:34:40.283Z,68.93
2022-12-06T03:37:12.226Z,71.10
2022-12-06T03:40:08.159Z,67.60
2022-12-06T03:42:35.395Z,64.22
2022-12-06T03:45:03.809Z,70.82
2022-12-06T03:47:53.948Z,64.78
2022-12-06T03:50:29.448Z,60.97
2022-12-06T03:52:56.496Z,67.55
2022-12-06T03:55:23.451Z,62.47
2022-12-06T03:57:50.265Z,65.47
2022-12-06T04:00:17.402Z,66.90
2022-12-06T04:02:44.299Z,68.28
2022-12-06T04:05:11.242Z,61.47
2022-12-06T04:07:38.249Z,61.05
2022-12-06T04:10:05.907Z,63.80
2022-12-06T04:13:07.363Z,59.55
2022-12-06T04:15:37.248Z,57.40
2022-12-06T04:18:16.488Z,62.08
2022-12-06T04:21:22.959Z,61.72
2022-12-06T04:23:51.862Z,58.88
2022-12-06T04:26:21.770Z,63.63
2022-12-06T04:29:09.029Z,58.38
2022-12-06T04:31:54.959Z,61.85
2022-12-06T04:34:40.414Z,61.50
2022-12-06T04:37:26.007Z,63.67
2022-12-06T04:39:52.840Z,66.05
2022-12-06T04:42:38.228Z,65.72
2022-12-06T04:45:06.643Z,64.43
2022-12-06T04:47:33.501Z,64.15
2022-12-06T04:50:00.719Z,58.78
2022-12-06T04:52:31.376Z,67.22
2022-12-06T04:55:01.057Z,60.90
2022-12-06T04:57:28.057Z,67.95
2022-12-06T04:59:54.850Z,60.42
2022-12-06T05:02:21.711Z,59.10
2022-12-06T05:04:48.622Z,61.75
2022-12-06T05:07:15.457Z,67.20
2022-12-06T05:09:42.493Z,53.53
2022-12-06T05:12:09.344Z,67.45
2022-12-06T05:14:36.308Z,62.47
2022-12-06T05:17:03.519Z,60.10
2022-12-06T05:19:30.467Z,59.90
2022-12-06T05:21:57.331Z,59.72
2022-12-06T05:24:24.193Z,64.47
2022-12-06T05:26:51.047Z,56.03
2022-12-06T05:29:18.023Z,64.43
2022-12-06T05:31:45.020Z,62.45
2022-12-06T05:34:12.076Z,55.53
2022-12-06T05:36:38.957Z,57.03
2022-12-06T05:39:05.856Z,53.67
2022-12-06T05:41:32.679Z,62.47
2022-12-06T05:43:59.506Z,51.63
2022-12-06T05:46:26.360Z,59.92
2022-12-06T05:48:53.223Z,54.53
2022-12-06T05:51:20.073Z,58.40
2022-12-06T05:53:46.902Z,58.63
2022-12-06T05:56:13.962Z,53.17
2022-12-06T05:58:41.260Z,63.22
2022-12-06T06:01:08.945Z,48.50
2022-12-06T06:03:36.411Z,50.92
2022-12-06T06:06:04.122Z,59.35
2022-12-06T06:08:31.621Z,57.85
2022-12-06T06:10:59.262Z,65.80
2022-12-06T06:13:26.278Z,61.40
2022-12-06T06:15:53.220Z,52.45
2022-12-06T06:18:20.475Z,53.13
2022-12-06T06:20:52.535Z,54.60
2022-12-06T06:23:20.414Z,55.10
2022-12-06T06:25:47.693Z,56.58
2022-12-06T06:28:15.238Z,52.60
2022-12-06T06:30:42.196Z,62.17
2022-12-06T06:33:09.300Z,61.58
2022-12-06T06:35:36.956Z,47.08
2022-12-06T06:38:04.313Z,64.25
2022-12-06T06:40:31.418Z,51.28
2022-12-06T06:42:58.605Z,63.00
2022-12-06T06:45:29.014Z,54.35
2022-12-06T06:47:56.044Z,56.15
2022-12-06T06:50:22.924Z,51.75
2022-12-06T06:52:50.167Z,53.58
2022-12-06T06:55:17.132Z,55.35
2022-12-06T06:57:44.129Z,51.97
2022-12-06T07:00:11.707Z,52.38
2022-12-06T07:02:39.666Z,55.55
2022-12-06T07:05:07.389Z,53.05
2022-12-06T07:07:34.440Z,56.80
2022-12-06T07:10:01.594Z,50.42
2022-12-06T07:12:28.767Z,57.42
2022-12-06T07:14:55.861Z,47.67
2022-12-06T07:17:24.666Z,51.15
2022-12-06T07:19:51.556Z,54.25
2022-12-06T07:22:18.383Z,50.22
2022-12-06T07:24:50.740Z,53.03
2022-12-06T07:27:19.575Z,48.92
2022-12-06T07:29:46.397Z,48.22
2022-12-06T07:32:13.241Z,47.25
2022-12-06T07:34:40.124Z,51.45
2022-12-06T07:37:06.984Z,49.35
2022-12-06T07:39:33.792Z,49.63
2022-12-06T07:42:19.154Z,50.08
2022-12-06T07:45:05.649Z,49.28
2022-12-06T07:47:37.505Z,53.38
2022-12-06T07:50:06.505Z,47.78
2022-12-06T07:52:35.927Z,49.53
2022-12-06T07:55:04.382Z,46.15
2022-12-06T07:57:31.218Z,42.67
2022-12-06T07:59:58.467Z,45.78
2022-12-06T08:02:27.378Z,45.28
2022-12-06T08:04:55.301Z,46.50
2022-12-06T08:07:23.414Z,47.35
2022-12-06T08:09:52.079Z,44.97
2022-12-06T08:12:19.775Z,53.92
2022-12-06T08:14:47.205Z,51.65
2022-12-06T08:17:14.294Z,45.42
2022-12-06T08:19:41.709Z,51.47
2022-12-06T08:22:08.597Z,45.97
2022-12-06T08:24:35.461Z,46.13
2022-12-06T08:27:02.688Z,50.67
2022-12-06T08:29:29.533Z,56.33
2022-12-06T08:31:56.453Z,49.00
2022-12-06T08:34:23.275Z,48.95
2022-12-06T08:36:50.511Z,44.55
2022-12-06T08:39:17.355Z,45.35
2022-12-06T08:41:58.018Z,46.97
2022-12-06T08:44:29.214Z,48.00
2022-12-06T08:46:57.273Z,47.38
2022-12-06T08:49:25.471Z,62.17
2022-12-06T08:51:53.392Z,49.85
2022-12-06T08:54:23.681Z,51.42
2022-12-06T08:56:51.334Z,49.00
2022-12-06T08:59:18.806Z,49.00
2022-12-06T09:01:46.684Z,53.30
2022-12-06T09:04:14.593Z,49.58
2022-12-06T09:06:43.839Z,51.45
2022-12-06T09:09:12.200Z,51.00
2022-12-06T09:11:40.019Z,48.90
2022-12-06T09:14:09.267Z,48.70
2022-12-06T09:16:36.616Z,51.78
2022-12-06T09:19:03.943Z,50.92
2022-12-06T09:21:30.889Z,47.97
2022-12-06T09:23:58.744Z,46.53
2022-12-06T09:26:27.467Z,49.70
2022-12-06T09:28:55.719Z,53.08
2022-12-06T09:31:23.139Z,53.90
2022-12-06T09:33:50.395Z,43.08
2022-12-06T09:36:22.711Z,45.70
2022-12-06T09:39:04.247Z,47.05
2022-12-06T09:41:49.280Z,51.78
2022-12-06T09:44:57.161Z,49.55
2022-12-06T09:48:03.840Z,48.45
2022-12-06T09:50:36.746Z,41.58
2022-12-06T09:53:42.050Z,48.47
2022-12-06T09:56:22.275Z,43.08
2022-12-06T09:59:07.635Z,47.67
2022-12-06T10:02:10.989Z,47.30
2022-12-06T10:05:06.103Z,45.53
2022-12-06T10:07:57.451Z,48.42
2022-12-06T10:11:08.533Z,49.22
2022-12-06T10:13:50.492Z,49.50
2022-12-06T10:16:55.317Z,50.10
2022-12-06T10:19:33.858Z,43.38
2022-12-06T10:22:24.456Z,45.17
2022-12-06T10:24:54.136Z,43.45
2022-12-06T10:27:30.832Z,46.15
2022-12-06T10:30:15.486Z,51.30
2022-12-06T10:33:06.515Z,49.72
2022-12-06T10:35:56.072Z,46.33
2022-12-06T10:38:46.203Z,48.95
2022-12-06T10:41:22.516Z,45.92
2022-12-06T10:43:52.456Z,49.63
2022-12-06T10:46:51.765Z,45.65
2022-12-06T10:49:48.268Z,54.05
2022-12-06T10:52:35.179Z,52.67
2022-12-06T10:55:32.930Z,54.30
2022-12-06T10:58:24.745Z,52.13
2022-12-06T11:01:00.050Z,51.40
2022-12-06T11:03:34.211Z,47.80
2022-12-06T11:06:10.142Z,47.08
2022-12-06T11:08:40.054Z,47.28
2022-12-06T11:11:16.255Z,56.60
2022-12-06T11:13:51.282Z,53.38
2022-12-06T11:16:27.403Z,50.33
2022-12-06T11:19:01.035Z,51.88
2022-12-06T11:21:28.479Z,60.37
2022-12-06T11:24:19.659Z,52.28
2022-12-06T11:26:52.629Z,60.33
2022-12-06T11:29:19.794Z,53.15
2022-12-06T11:31:58.755Z,55.83
2022-12-06T11:34:49.256Z,50.58
2022-12-06T11:37:19.894Z,44.63
2022-12-06T11:39:50.777Z,53.55
2022-12-06T11:42:23.782Z,48.00
2022-12-06T11:44:59.304Z,52.97
2022-12-06T11:47:26.430Z,52.20
2022-12-06T11:49:55.365Z,56.35
2022-12-06T11:52:35.679Z,54.75
2022-12-06T11:55:16.634Z,47.53
2022-12-06T11:57:50.723Z,48.22
2022-12-06T12:00:23.500Z,57.80
2022-12-06T12:02:53.867Z,55.13
2022-12-06T12:05:25.571Z,54.63
2022-12-06T12:08:15.245Z,54.53
2022-12-06T12:10:45.009Z,45.67
2022-12-06T12:13:39.032Z,50.53
2022-12-06T12:16:23.934Z,56.45
2022-12-06T12:19:32.400Z,59.22
2022-12-06T12:22:13.191Z,56.70
2022-12-06T12:27:40.671Z,48.38
2022-12-06T12:30:19.562Z,61.00
2022-12-06T12:32:48.729Z,53.22
2022-12-06T12:35:21.885Z,56.92
2022-12-06T12:37:58.872Z,53.25
2022-12-06T12:40:30.431Z,45.60
2022-12-06T12:43:13.459Z,49.50
2022-12-06T12:46:02.690Z,50.88
2022-12-06T12:48:30.279Z,51.65
2022-12-06T12:50:59.632Z,47.35
2022-12-06T12:53:37.742Z,42.63
2022-12-06T12:56:14.834Z,50.55
2022-12-06T12:58:43.229Z,45.20
2022-12-06T13:01:19.069Z,46.80
2022-12-06T13:03:51.784Z,46.47
2022-12-06T13:06:47.686Z,51.10
2022-12-06T13:09:42.442Z,48.88
2022-12-06T13:12:18.932Z,48.70
2022-12-06T13:14:52.547Z,47.35
2022-12-06T13:17:22.462Z,48.53
2022-12-06T13:19:59.346Z,51.65
2022-12-06T13:22:31.533Z,49.75
2022-12-06T13:25:06.618Z,47.40
2022-12-06T13:27:44.061Z,41.92
2022-12-06T13:30:17.273Z,47.60
2022-12-06T13:32:50.234Z,50.95
2022-12-06T13:35:23.505Z,50.47
2022-12-06T13:37:57.088Z,47.92
2022-12-06T13:40:33.065Z,59.13
2022-12-06T13:43:26.054Z,51.78
2022-12-06T13:46:24.326Z,47.97
2022-12-06T13:48:52.058Z,49.42
2022-12-06T13:51:31.055Z,53.78
2022-12-06T13:54:06.664Z,49.47
2022-12-06T13:56:33.493Z,55.00
2022-12-06T13:59:20.559Z,52.72
2022-12-06T14:01:51.647Z,51.38
2022-12-06T14:09:25.965Z,51.35
2022-12-06T14:11:53.431Z,48.45
2022-12-06T14:14:25.378Z,56.22
2022-12-06T14:16:53.513Z,48.63
2022-12-06T14:19:26.693Z,58.90
2022-12-06T14:22:02.695Z,59.30
2022-12-06T14:24:43.161Z,54.40
2022-12-06T14:27:21.941Z,52.40
2022-12-06T14:30:24.796Z,55.17
2022-12-06T14:32:54.565Z,52.15
2022-12-06T14:35:36.392Z,54.53
2022-12-06T14:38:23.549Z,49.75
2022-12-06T14:41:10.027Z,49.67
2022-12-06T14:43:37.386Z,54.70
2022-12-06T14:46:12.296Z,43.85
2022-12-06T14:48:58.290Z,52.38
2022-12-06T14:51:40.965Z,53.47
2022-12-06T14:54:44.769Z,53.65
2022-12-06T14:57:32.407Z,54.95
2022-12-06T15:00:27.797Z,53.25
2022-12-06T15:03:12.964Z,50.20
2022-12-06T15:05:43.877Z,52.15
2022-12-06T15:08:32.575Z,51.63
2022-12-06T15:11:03.987Z,54.53
2022-12-06T15:13:31.282Z,47.55
2022-12-06T15:16:14.096Z,52.75
2022-12-06T15:18:59.200Z,48.20
2022-12-06T15:21:26.087Z,57.25
2022-12-06T15:23:55.019Z,54.28
2022-12-06T15:26:24.422Z,52.55
2022-12-06T15:28:52.055Z,53.78
2022-12-06T15:31:23.678Z,54.58
2022-12-06T15:33:50.825Z,52.80
2022-12-06T15:36:25.366Z,49.10
2022-12-06T15:41:22.419Z,55.85
2022-12-06T15:43:50.260Z,47.70
2022-12-06T15:50:05.000Z,54.08
2022-12-06T15:52:32.009Z,48.83
2022-12-06T15:54:59.367Z,54.60
2022-12-06T16:01:19.997Z,50.97
2022-12-06T16:03:47.569Z,58.95
2022-12-06T16:06:19.546Z,54.92
2022-12-06T16:08:47.108Z,53.92
2022-12-06T16:11:16.866Z,55.95
2022-12-06T16:13:44.092Z,51.25
2022-12-06T16:16:11.837Z,50.88
2022-12-06T16:18:39.042Z,58.08
2022-12-06T16:21:06.438Z,55.75
2022-12-06T16:26:45.300Z,55.65
2022-12-06T16:29:23.268Z,64.63
2022-12-06T16:31:51.542Z,54.67
2022-12-06T16:34:18.803Z,56.50
2022-12-06T16:37:08.680Z,58.13
2022-12-06T16:39:35.721Z,63.60
2022-12-06T16:42:04.802Z,61.05
2022-12-06T16:44:32.018Z,66.50
2022-12-06T16:46:59.180Z,63.03
2022-12-06T16:49:45.848Z,66.20
2022-12-06T16:52:15.105Z,68.90
2022-12-06T16:54:42.679Z,73.50
2022-12-06T16:57:11.567Z,60.13
2022-12-06T16:59:38.562Z,70.45
2022-12-06T17:02:27.117Z,58.08
2022-12-06T17:04:55.133Z,61.65
2022-12-06T17:07:22.336Z,64.50
2022-12-06T17:09:49.272Z,67.22
2022-12-06T17:12:16.802Z,57.33
2022-12-06T17:14:44.404Z,55.95
2022-12-06T17:17:21.481Z,61.30
2022-12-06T17:19:49.469Z,62.88
2022-12-06T17:22:16.854Z,69.22
2022-12-06T17:24:44.083Z,59.10
2022-12-06T17:27:14.508Z,63.97
2022-12-06T17:29:43.586Z,64.20
2022-12-06T17:32:11.567Z,66.07
2022-12-06T17:34:38.650Z,59.08
2022-12-06T17:37:06.279Z,58.20
2022-12-06T17:39:33.480Z,62.60
2022-12-06T17:42:19.178Z,53.72
2022-12-06T17:44:46.245Z,73.75
2022-12-06T17:47:13.259Z,65.00
2022-12-06T17:49:40.139Z,73.03
2022-12-06T17:52:07.098Z,68.20
2022-12-06T17:54:33.982Z,61.50
2022-12-06T17:57:00.895Z,76.38
2022-12-06T17:59:30.469Z,68.72
2022-12-06T18:02:16.970Z,80.53
2022-12-06T18:04:45.216Z,72.63
2022-12-06T18:07:13.428Z,75.47
2022-12-06T18:09:40.736Z,67.07
2022-12-06T18:12:12.293Z,76.47
2022-12-06T18:14:39.338Z,71.78
2022-12-06T18:17:06.369Z,71.00
2022-12-06T18:19:33.724Z,69.55
2022-12-06T18:22:00.662Z,66.07
2022-12-06T18:24:32.095Z,71.80
2022-12-06T18:29:29.179Z,66.40
2022-12-06T18:31:56.135Z,63.17
2022-12-06T18:34:23.434Z,63.50
2022-12-06T18:36:51.110Z,66.05
2022-12-06T18:39:24.479Z,69.68
2022-12-06T18:41:53.276Z,63.47
2022-12-06T18:44:20.696Z,48.67
2022-12-06T18:46:48.154Z,62.72
2022-12-06T18:49:15.666Z,59.05
2022-12-06T18:51:42.816Z,52.47
2022-12-06T18:54:11.144Z,65.07
2022-12-06T18:56:38.033Z,58.05
2022-12-06T18:59:08.812Z,54.05
2022-12-06T19:01:38.835Z,59.28
2022-12-06T19:04:08.280Z,52.28
2022-12-06T19:06:38.053Z,57.33
2022-12-06T19:09:09.546Z,60.40
2022-12-06T19:11:37.865Z,56.67
2022-12-06T19:14:05.778Z,63.10
2022-12-06T19:16:42.238Z,52.42
2022-12-06T19:22:50.118Z,49.08
2022-12-06T19:28:58.478Z,49.50
2022-12-06T19:31:25.860Z,50.95
2022-12-06T19:33:53.123Z,53.95
2022-12-06T19:36:23.339Z,45.05
2022-12-06T19:38:59.167Z,52.85
2022-12-06T19:41:26.674Z,57.10
2022-12-06T19:44:12.411Z,48.45
2022-12-06T19:46:42.713Z,41.22
2022-12-06T19:49:10.599Z,57.17
2022-12-06T19:51:39.861Z,48.22
2022-12-06T19:54:07.778Z,50.38
2022-12-06T19:56:35.594Z,58.97
2022-12-06T19:59:11.851Z,49.38
2022-12-06T20:01:40.993Z,53.25
2022-12-06T20:04:08.620Z,43.67
2022-12-06T20:06:36.631Z,48.67
2022-12-06T20:09:05.091Z,49.28
2022-12-06T20:11:53.665Z,49.03
2022-12-06T20:14:21.086Z,48.65
2022-12-06T20:16:48.428Z,46.13
2022-12-06T20:19:16.086Z,55.83
2022-12-06T20:21:43.918Z,49.08
2022-12-06T20:24:12.866Z,48.97
2022-12-06T20:26:40.117Z,56.30
2022-12-06T20:29:08.032Z,44.17
2022-12-06T20:31:35.828Z,48.88
2022-12-06T20:34:04.690Z,44.65
2022-12-06T20:36:33.387Z,54.05
2022-12-06T20:39:01.648Z,49.17
2022-12-06T20:41:30.962Z,43.17
2022-12-06T20:43:58.150Z,44.40
2022-12-06T20:46:31.418Z,45.30
2022-12-06T20:49:03.785Z,41.95
2022-12-06T20:51:32.329Z,44.38
2022-12-06T20:54:02.701Z,51.85
2022-12-06T20:56:32.040Z,45.97
2022-12-06T20:59:01.399Z,41.92
2022-12-06T21:01:35.577Z,45.63
2022-12-06T21:04:03.156Z,45.58
2022-12-06T21:06:30.108Z,47.53
2022-12-06T21:08:57.013Z,43.83
2022-12-06T21:11:25.272Z,48.70
2022-12-06T21:13:54.295Z,44.80
2022-12-06T21:16:32.381Z,43.33
2022-12-06T21:19:05.841Z,40.70
2022-12-06T21:21:37.590Z,48.95
2022-12-06T21:24:16.847Z,42.45
2022-12-06T21:26:44.072Z,44.22
2022-12-06T21:29:28.382Z,42.65
2022-12-06T21:31:56.922Z,43.75
2022-12-06T21:34:24.370Z,42.78
2022-12-06T21:36:51.353Z,44.95
2022-12-06T21:39:18.198Z,41.30
2022-12-06T21:41:45.933Z,42.63
2022-12-06T21:44:12.852Z,36.42
2022-12-06T21:46:39.799Z,47.28
2022-12-06T21:49:06.922Z,41.30
2022-12-06T21:51:33.896Z,44.13
2022-12-06T21:54:01.568Z,45.28
2022-12-06T21:56:30.493Z,45.13
2022-12-06T21:59:00.214Z,40.85
2022-12-06T22:01:29.603Z,44.83
2022-12-06T22:03:59.297Z,41.22
2022-12-06T22:06:26.909Z,43.67
2022-12-06T22:09:01.961Z,39.67
2022-12-06T22:11:30.321Z,43.88
2022-12-06T22:13:59.247Z,47.83
2022-12-06T22:16:26.951Z,46.53
2022-12-06T22:18:56.631Z,35.25
2022-12-06T22:21:26.192Z,40.10
2022-12-06T22:23:53.424Z,38.38
2022-12-06T22:26:22.334Z,46.50
2022-12-06T22:28:49.697Z,57.17
2022-12-06T22:31:29.651Z,71.00
2022-12-06T22:33:57.724Z,39.88
2022-12-06T22:36:24.820Z,43.42
2022-12-06T22:38:53.922Z,40.05
2022-12-06T22:41:21.695Z,38.00
2022-12-06T22:43:53.722Z,36.50
2022-12-06T22:46:21.877Z,39.38
2022-12-06T22:48:49.739Z,38.13
2022-12-06T22:51:25.469Z,40.75
2022-12-06T22:53:55.903Z,35.08
2022-12-06T22:56:23.419Z,34.45
2022-12-06T22:58:53.207Z,42.85
2022-12-06T23:01:24.065Z,33.00
2022-12-06T23:03:52.566Z,32.28
2022-12-06T23:06:22.149Z,36.80
2022-12-06T23:08:49.380Z,32.45
2022-12-06T23:11:22.467Z,36.58
2022-12-06T23:13:49.624Z,35.58
2022-12-06T23:16:19.383Z,33.80
2022-12-06T23:18:47.106Z,33.13
2022-12-06T23:21:22.094Z,32.53
2022-12-06T23:23:55.527Z,34.97
2022-12-06T23:26:31.390Z,34.50
2022-12-06T23:28:58.722Z,28.23
2022-12-06T23:31:29.184Z,26.10
2022-12-06T23:34:00.617Z,30.77
2022-12-06T23:36:30.322Z,31.58
2022-12-06T23:38:57.237Z,30.25
2022-12-06T23:41:27.015Z,30.85
2022-12-06T23:43:55.194Z,28.80
2022-12-06T23:46:24.853Z,28.63
2022-12-06T23:48:52.746Z,29.15
2022-12-06T23:51:22.508Z,25.35
2022-12-06T23:53:57.537Z,27.02
2022-12-06T23:56:26.777Z,29.00
2022-12-06T23:58:53.943Z,28.95
